sensor_id;sensor_type;location;lat;lon;timestamp;temperature;humidity
78649;DHT22;67962;47.310;9.642;2023-03-12T00:01:29;5.00;71.60
78649;DHT22;67962;47.310;9.642;2023-03-12T00:03:59;5.00;71.60
78649;DHT22;67962;47.310;9.642;2023-03-12T00:06:25;5.00;71.30
78649;DHT22;67962;47.310;9.642;2023-03-12T00:08:51;5.00;71.50
78649;DHT22;67962;47.310;9.642;2023-03-12T00:11:18;4.90;71.60
78649;DHT22;67962;47.310;9.642;2023-03-12T00:13:51;5.00;71.30
78649;DHT22;67962;47.310;9.642;2023-03-12T00:16:17;5.00;71.30
78649;DHT22;67962;47.310;9.642;2023-03-12T00:18:45;5.00;71.50
78649;DHT22;67962;47.310;9.642;2023-03-12T00:21:11;5.00;71.60
78649;DHT22;67962;47.310;9.642;2023-03-12T00:23:37;5.00;71.40
78649;DHT22;67962;47.310;9.642;2023-03-12T00:26:06;5.00;71.40
78649;DHT22;67962;47.310;9.642;2023-03-12T00:28:32;4.90;71.50
78649;DHT22;67962;47.310;9.642;2023-03-12T00:31:00;4.90;71.60
78649;DHT22;67962;47.310;9.642;2023-03-12T00:33:26;4.90;71.60
78649;DHT22;67962;47.310;9.642;2023-03-12T00:35:54;4.90;71.60
78649;DHT22;67962;47.310;9.642;2023-03-12T00:38:20;4.90;71.90
78649;DHT22;67962;47.310;9.642;2023-03-12T00:40:46;5.00;71.80
78649;DHT22;67962;47.310;9.642;2023-03-12T00:43:12;5.10;71.50
78649;DHT22;67962;47.310;9.642;2023-03-12T00:45:37;5.10;70.90
78649;DHT22;67962;47.310;9.642;2023-03-12T00:48:03;5.00;70.80
78649;DHT22;67962;47.310;9.642;2023-03-12T00:50:29;4.90;71.30
78649;DHT22;67962;47.310;9.642;2023-03-12T00:52:54;4.90;71.60
78649;DHT22;67962;47.310;9.642;2023-03-12T00:55:20;5.00;71.60
78649;DHT22;67962;47.310;9.642;2023-03-12T00:57:46;5.00;71.00
78649;DHT22;67962;47.310;9.642;2023-03-12T01:00:12;4.90;70.90
78649;DHT22;67962;47.310;9.642;2023-03-12T01:02:38;4.90;71.40
78649;DHT22;67962;47.310;9.642;2023-03-12T01:05:09;4.90;71.00
78649;DHT22;67962;47.310;9.642;2023-03-12T01:07:35;4.90;71.00
78649;DHT22;67962;47.310;9.642;2023-03-12T01:10:02;4.80;71.20
78649;DHT22;67962;47.310;9.642;2023-03-12T01:12:27;4.70;71.40
78649;DHT22;67962;47.310;9.642;2023-03-12T01:14:53;4.70;71.40
78649;DHT22;67962;47.310;9.642;2023-03-12T01:17:19;4.60;71.60
78649;DHT22;67962;47.310;9.642;2023-03-12T01:19:45;4.60;71.60
78649;DHT22;67962;47.310;9.642;2023-03-12T01:22:10;4.60;71.70
78649;DHT22;67962;47.310;9.642;2023-03-12T01:24:36;4.60;71.70
78649;DHT22;67962;47.310;9.642;2023-03-12T01:27:02;4.60;71.70
78649;DHT22;67962;47.310;9.642;2023-03-12T01:29:28;4.60;71.90
78649;DHT22;67962;47.310;9.642;2023-03-12T01:31:53;4.60;72.30
78649;DHT22;67962;47.310;9.642;2023-03-12T01:34:19;4.60;72.40
78649;DHT22;67962;47.310;9.642;2023-03-12T01:36:45;4.70;72.00
78649;DHT22;67962;47.310;9.642;2023-03-12T01:39:12;4.60;71.70
78649;DHT22;67962;47.310;9.642;2023-03-12T01:41:38;4.70;72.00
78649;DHT22;67962;47.310;9.642;2023-03-12T01:44:05;4.80;71.80
78649;DHT22;67962;47.310;9.642;2023-03-12T01:54:52;4.70;71.60
78649;DHT22;67962;47.310;9.642;2023-03-12T01:57:22;4.60;71.50
78649;DHT22;67962;47.310;9.642;2023-03-12T01:59:59;4.50;71.90
78649;DHT22;67962;47.310;9.642;2023-03-12T02:02:26;4.60;72.30
78649;DHT22;67962;47.310;9.642;2023-03-12T02:07:34;4.70;71.80
78649;DHT22;67962;47.310;9.642;2023-03-12T02:10:00;4.70;71.70
78649;DHT22;67962;47.310;9.642;2023-03-12T02:12:26;4.60;71.70
78649;DHT22;67962;47.310;9.642;2023-03-12T02:14:52;4.60;71.80
78649;DHT22;67962;47.310;9.642;2023-03-12T02:17:18;4.60;72.80
78649;DHT22;67962;47.310;9.642;2023-03-12T02:22:18;4.70;71.90
78649;DHT22;67962;47.310;9.642;2023-03-12T02:24:59;4.70;71.40
78649;DHT22;67962;47.310;9.642;2023-03-12T02:27:32;4.70;72.40
78649;DHT22;67962;47.310;9.642;2023-03-12T02:30:02;4.70;71.50
78649;DHT22;67962;47.310;9.642;2023-03-12T02:32:33;4.60;71.60
78649;DHT22;67962;47.310;9.642;2023-03-12T02:35:00;4.70;71.80
78649;DHT22;67962;47.310;9.642;2023-03-12T02:37:26;4.70;71.70
78649;DHT22;67962;47.310;9.642;2023-03-12T02:40:02;4.70;71.70
78649;DHT22;67962;47.310;9.642;2023-03-12T02:42:28;4.80;71.40
78649;DHT22;67962;47.310;9.642;2023-03-12T02:44:53;4.70;71.10
78649;DHT22;67962;47.310;9.642;2023-03-12T02:47:19;4.70;71.30
78649;DHT22;67962;47.310;9.642;2023-03-12T02:49:45;4.60;71.40
78649;DHT22;67962;47.310;9.642;2023-03-12T02:52:11;4.60;71.50
78649;DHT22;67962;47.310;9.642;2023-03-12T02:54:36;4.50;71.90
78649;DHT22;67962;47.310;9.642;2023-03-12T02:57:02;4.60;71.80
78649;DHT22;67962;47.310;9.642;2023-03-12T02:59:28;4.50;71.90
78649;DHT22;67962;47.310;9.642;2023-03-12T03:01:55;4.60;72.00
78649;DHT22;67962;47.310;9.642;2023-03-12T03:04:22;4.60;71.80
78649;DHT22;67962;47.310;9.642;2023-03-12T03:06:48;4.60;72.20
78649;DHT22;67962;47.310;9.642;2023-03-12T03:09:14;4.70;72.00
78649;DHT22;67962;47.310;9.642;2023-03-12T03:11:40;4.60;71.70
78649;DHT22;67962;47.310;9.642;2023-03-12T03:14:06;4.70;71.80
78649;DHT22;67962;47.310;9.642;2023-03-12T03:16:32;4.80;71.60
78649;DHT22;67962;47.310;9.642;2023-03-12T03:18:58;4.80;70.90
78649;DHT22;67962;47.310;9.642;2023-03-12T03:21:23;4.70;71.40
78649;DHT22;67962;47.310;9.642;2023-03-12T03:23:50;4.70;71.60
78649;DHT22;67962;47.310;9.642;2023-03-12T03:26:19;4.70;71.80
78649;DHT22;67962;47.310;9.642;2023-03-12T03:28:45;4.70;71.50
78649;DHT22;67962;47.310;9.642;2023-03-12T03:31:11;4.70;71.20
78649;DHT22;67962;47.310;9.642;2023-03-12T03:33:38;4.70;71.70
78649;DHT22;67962;47.310;9.642;2023-03-12T03:36:05;4.70;72.00
78649;DHT22;67962;47.310;9.642;2023-03-12T03:38:33;4.70;71.80
78649;DHT22;67962;47.310;9.642;2023-03-12T03:40:59;4.70;71.90
78649;DHT22;67962;47.310;9.642;2023-03-12T03:43:26;4.80;71.90
78649;DHT22;67962;47.310;9.642;2023-03-12T03:45:59;4.90;71.90
78649;DHT22;67962;47.310;9.642;2023-03-12T03:48:25;4.90;71.50
78649;DHT22;67962;47.310;9.642;2023-03-12T03:50:51;4.90;71.60
78649;DHT22;67962;47.310;9.642;2023-03-12T03:53:18;4.90;71.60
78649;DHT22;67962;47.310;9.642;2023-03-12T03:55:45;4.80;71.50
78649;DHT22;67962;47.310;9.642;2023-03-12T03:58:11;4.80;71.60
78649;DHT22;67962;47.310;9.642;2023-03-12T04:00:37;4.80;71.60
78649;DHT22;67962;47.310;9.642;2023-03-12T04:03:03;4.90;71.80
78649;DHT22;67962;47.310;9.642;2023-03-12T04:05:29;4.90;71.40
78649;DHT22;67962;47.310;9.642;2023-03-12T04:07:55;4.90;71.60
78649;DHT22;67962;47.310;9.642;2023-03-12T04:10:22;4.90;71.80
78649;DHT22;67962;47.310;9.642;2023-03-12T04:12:49;4.90;71.40
78649;DHT22;67962;47.310;9.642;2023-03-12T04:15:14;4.90;71.60
78649;DHT22;67962;47.310;9.642;2023-03-12T04:17:40;5.00;71.80
78649;DHT22;67962;47.310;9.642;2023-03-12T04:20:06;5.00;71.80
78649;DHT22;67962;47.310;9.642;2023-03-12T04:22:34;5.00;71.70
78649;DHT22;67962;47.310;9.642;2023-03-12T04:24:59;5.10;71.70
78649;DHT22;67962;47.310;9.642;2023-03-12T04:27:26;5.10;71.40
78649;DHT22;67962;47.310;9.642;2023-03-12T04:29:51;5.10;71.40
78649;DHT22;67962;47.310;9.642;2023-03-12T04:32:17;5.10;71.40
78649;DHT22;67962;47.310;9.642;2023-03-12T04:34:43;5.10;71.10
78649;DHT22;67962;47.310;9.642;2023-03-12T04:37:08;5.00;71.00
78649;DHT22;67962;47.310;9.642;2023-03-12T04:39:41;4.90;71.50
78649;DHT22;67962;47.310;9.642;2023-03-12T04:42:07;4.90;71.70
78649;DHT22;67962;47.310;9.642;2023-03-12T04:44:34;4.90;71.80
78649;DHT22;67962;47.310;9.642;2023-03-12T04:47:00;4.90;72.10
78649;DHT22;67962;47.310;9.642;2023-03-12T04:49:26;5.00;71.90
78649;DHT22;67962;47.310;9.642;2023-03-12T04:51:51;4.90;71.60
78649;DHT22;67962;47.310;9.642;2023-03-12T04:54:17;4.80;72.00
78649;DHT22;67962;47.310;9.642;2023-03-12T04:56:46;4.80;72.10
78649;DHT22;67962;47.310;9.642;2023-03-12T04:59:12;4.90;72.20
78649;DHT22;67962;47.310;9.642;2023-03-12T05:01:38;4.90;71.90
78649;DHT22;67962;47.310;9.642;2023-03-12T05:04:04;4.90;72.10
78649;DHT22;67962;47.310;9.642;2023-03-12T05:06:30;4.90;72.30
78649;DHT22;67962;47.310;9.642;2023-03-12T05:08:56;4.90;72.30
78649;DHT22;67962;47.310;9.642;2023-03-12T05:11:22;5.00;72.30
78649;DHT22;67962;47.310;9.642;2023-03-12T05:13:48;5.00;72.00
78649;DHT22;67962;47.310;9.642;2023-03-12T05:16:14;5.00;72.00
78649;DHT22;67962;47.310;9.642;2023-03-12T05:18:41;4.80;72.20
78649;DHT22;67962;47.310;9.642;2023-03-12T05:21:16;4.90;72.50
78649;DHT22;67962;47.310;9.642;2023-03-12T05:23:42;4.90;72.50
78649;DHT22;67962;47.310;9.642;2023-03-12T05:28:41;5.00;72.20
78649;DHT22;67962;47.310;9.642;2023-03-12T05:31:09;5.00;72.00
78649;DHT22;67962;47.310;9.642;2023-03-12T05:33:35;5.00;71.90
78649;DHT22;67962;47.310;9.642;2023-03-12T05:36:01;4.90;72.20
78649;DHT22;67962;47.310;9.642;2023-03-12T05:38:27;4.80;72.50
78649;DHT22;67962;47.310;9.642;2023-03-12T05:40:54;4.80;72.60
78649;DHT22;67962;47.310;9.642;2023-03-12T05:43:21;4.70;72.90
78649;DHT22;67962;47.310;9.642;2023-03-12T05:45:47;4.80;72.70
78649;DHT22;67962;47.310;9.642;2023-03-12T05:48:13;4.80;73.10
78649;DHT22;67962;47.310;9.642;2023-03-12T05:50:39;4.80;73.10
78649;DHT22;67962;47.310;9.642;2023-03-12T05:53:04;4.90;72.60
78649;DHT22;67962;47.310;9.642;2023-03-12T05:55:34;4.90;72.50
78649;DHT22;67962;47.310;9.642;2023-03-12T05:58:00;4.90;72.80
78649;DHT22;67962;47.310;9.642;2023-03-12T06:00:26;4.90;72.80
78649;DHT22;67962;47.310;9.642;2023-03-12T06:02:52;4.90;72.90
78649;DHT22;67962;47.310;9.642;2023-03-12T06:05:17;4.90;72.90
78649;DHT22;67962;47.310;9.642;2023-03-12T06:07:43;5.00;72.80
78649;DHT22;67962;47.310;9.642;2023-03-12T06:10:09;5.10;72.60
78649;DHT22;67962;47.310;9.642;2023-03-12T06:12:35;5.10;72.60
78649;DHT22;67962;47.310;9.642;2023-03-12T06:15:01;5.20;72.40
78649;DHT22;67962;47.310;9.642;2023-03-12T06:17:28;5.20;72.10
78649;DHT22;67962;47.310;9.642;2023-03-12T06:19:54;5.20;72.10
78649;DHT22;67962;47.310;9.642;2023-03-12T06:22:20;5.30;72.30
78649;DHT22;67962;47.310;9.642;2023-03-12T06:24:46;5.30;72.30
78649;DHT22;67962;47.310;9.642;2023-03-12T06:27:13;5.40;71.90
78649;DHT22;67962;47.310;9.642;2023-03-12T06:29:39;5.50;71.90
78649;DHT22;67962;47.310;9.642;2023-03-12T06:32:05;5.50;71.80
78649;DHT22;67962;47.310;9.642;2023-03-12T06:34:31;5.50;71.70
78649;DHT22;67962;47.310;9.642;2023-03-12T06:36:56;5.40;71.80
78649;DHT22;67962;47.310;9.642;2023-03-12T06:39:23;5.50;71.60
78649;DHT22;67962;47.310;9.642;2023-03-12T06:41:49;5.50;71.30
78649;DHT22;67962;47.310;9.642;2023-03-12T06:44:15;5.40;71.60
78649;DHT22;67962;47.310;9.642;2023-03-12T06:46:41;5.40;71.90
78649;DHT22;67962;47.310;9.642;2023-03-12T06:49:09;5.30;71.90
78649;DHT22;67962;47.310;9.642;2023-03-12T06:51:34;5.40;72.20
78649;DHT22;67962;47.310;9.642;2023-03-12T06:54:00;5.40;71.90
78649;DHT22;67962;47.310;9.642;2023-03-12T06:56:27;5.50;71.60
78649;DHT22;67962;47.310;9.642;2023-03-12T06:58:53;5.50;71.80
78649;DHT22;67962;47.310;9.642;2023-03-12T07:01:19;5.50;71.90
78649;DHT22;67962;47.310;9.642;2023-03-12T07:03:45;5.50;71.80
78649;DHT22;67962;47.310;9.642;2023-03-12T07:06:15;5.50;71.80
78649;DHT22;67962;47.310;9.642;2023-03-12T07:08:41;5.50;71.80
78649;DHT22;67962;47.310;9.642;2023-03-12T07:11:07;5.50;72.10
78649;DHT22;67962;47.310;9.642;2023-03-12T07:13:33;5.60;72.10
78649;DHT22;67962;47.310;9.642;2023-03-12T07:15:59;5.70;72.00
78649;DHT22;67962;47.310;9.642;2023-03-12T07:18:25;5.70;71.70
78649;DHT22;67962;47.310;9.642;2023-03-12T07:20:51;5.60;71.70
78649;DHT22;67962;47.310;9.642;2023-03-12T07:23:16;5.60;71.80
78649;DHT22;67962;47.310;9.642;2023-03-12T07:25:43;5.60;72.00
78649;DHT22;67962;47.310;9.642;2023-03-12T07:28:09;5.70;71.90
78649;DHT22;67962;47.310;9.642;2023-03-12T07:30:36;5.70;71.70
78649;DHT22;67962;47.310;9.642;2023-03-12T07:33:03;5.60;71.80
78649;DHT22;67962;47.310;9.642;2023-03-12T07:35:29;5.70;72.10
78649;DHT22;67962;47.310;9.642;2023-03-12T07:37:55;5.70;71.90
78649;DHT22;67962;47.310;9.642;2023-03-12T07:40:21;5.70;71.90
78649;DHT22;67962;47.310;9.642;2023-03-12T07:42:49;5.80;72.20
78649;DHT22;67962;47.310;9.642;2023-03-12T07:45:15;5.90;72.70
78649;DHT22;67962;47.310;9.642;2023-03-12T07:47:41;5.90;71.70
78649;DHT22;67962;47.310;9.642;2023-03-12T07:50:06;5.90;72.80
78649;DHT22;67962;47.310;9.642;2023-03-12T07:52:32;5.90;72.20
78649;DHT22;67962;47.310;9.642;2023-03-12T07:54:58;5.80;72.20
78649;DHT22;67962;47.310;9.642;2023-03-12T07:57:24;5.80;72.50
78649;DHT22;67962;47.310;9.642;2023-03-12T07:59:50;5.80;73.00
78649;DHT22;67962;47.310;9.642;2023-03-12T08:02:16;5.90;73.30
78649;DHT22;67962;47.310;9.642;2023-03-12T08:04:42;6.00;73.70
78649;DHT22;67962;47.310;9.642;2023-03-12T08:07:08;6.00;73.30
78649;DHT22;67962;47.310;9.642;2023-03-12T08:09:33;6.00;73.40
78649;DHT22;67962;47.310;9.642;2023-03-12T08:11:59;5.90;73.30
78649;DHT22;67962;47.310;9.642;2023-03-12T08:14:25;5.90;73.50
78649;DHT22;67962;47.310;9.642;2023-03-12T08:16:58;6.00;73.80
78649;DHT22;67962;47.310;9.642;2023-03-12T08:19:25;6.00;73.10
78649;DHT22;67962;47.310;9.642;2023-03-12T08:21:51;6.00;73.10
78649;DHT22;67962;47.310;9.642;2023-03-12T08:24:18;6.10;72.90
78649;DHT22;67962;47.310;9.642;2023-03-12T08:26:44;6.20;72.80
78649;DHT22;67962;47.310;9.642;2023-03-12T08:29:10;6.30;72.50
78649;DHT22;67962;47.310;9.642;2023-03-12T08:31:36;6.40;72.30
78649;DHT22;67962;47.310;9.642;2023-03-12T08:34:01;6.50;72.10
78649;DHT22;67962;47.310;9.642;2023-03-12T08:36:27;6.50;72.40
78649;DHT22;67962;47.310;9.642;2023-03-12T08:38:53;6.60;72.60
78649;DHT22;67962;47.310;9.642;2023-03-12T08:41:18;6.60;73.20
78649;DHT22;67962;47.310;9.642;2023-03-12T08:43:44;6.70;72.80
78649;DHT22;67962;47.310;9.642;2023-03-12T08:46:11;6.70;73.10
78649;DHT22;67962;47.310;9.642;2023-03-12T08:48:37;6.80;73.30
78649;DHT22;67962;47.310;9.642;2023-03-12T08:51:03;6.80;73.30
78649;DHT22;67962;47.310;9.642;2023-03-12T08:53:31;7.00;73.40
78649;DHT22;67962;47.310;9.642;2023-03-12T08:55:56;7.00;71.80
78649;DHT22;67962;47.310;9.642;2023-03-12T08:58:24;7.00;71.80
78649;DHT22;67962;47.310;9.642;2023-03-12T09:00:50;7.10;72.60
78649;DHT22;67962;47.310;9.642;2023-03-12T09:03:17;7.20;72.00
78649;DHT22;67962;47.310;9.642;2023-03-12T09:05:43;7.30;72.10
78649;DHT22;67962;47.310;9.642;2023-03-12T09:08:09;7.20;72.40
78649;DHT22;67962;47.310;9.642;2023-03-12T09:10:36;7.30;72.20
78649;DHT22;67962;47.310;9.642;2023-03-12T09:13:04;7.40;71.50
78649;DHT22;67962;47.310;9.642;2023-03-12T09:15:30;7.40;72.10
78649;DHT22;67962;47.310;9.642;2023-03-12T09:17:56;7.30;71.90
78649;DHT22;67962;47.310;9.642;2023-03-12T09:20:22;7.30;72.30
78649;DHT22;67962;47.310;9.642;2023-03-12T09:22:48;7.30;72.30
78649;DHT22;67962;47.310;9.642;2023-03-12T09:25:17;7.30;72.10
78649;DHT22;67962;47.310;9.642;2023-03-12T09:27:45;7.30;71.60
78649;DHT22;67962;47.310;9.642;2023-03-12T09:30:16;7.30;71.70
78649;DHT22;67962;47.310;9.642;2023-03-12T09:32:42;7.20;71.50
78649;DHT22;67962;47.310;9.642;2023-03-12T09:35:13;7.30;71.90
78649;DHT22;67962;47.310;9.642;2023-03-12T09:37:40;7.50;72.00
78649;DHT22;67962;47.310;9.642;2023-03-12T09:40:07;7.60;71.10
78649;DHT22;67962;47.310;9.642;2023-03-12T09:42:43;7.70;71.30
78649;DHT22;67962;47.310;9.642;2023-03-12T09:45:16;7.60;72.10
78649;DHT22;67962;47.310;9.642;2023-03-12T09:47:49;7.60;71.50
78649;DHT22;67962;47.310;9.642;2023-03-12T09:55:41;7.70;71.40
78649;DHT22;67962;47.310;9.642;2023-03-12T09:58:32;7.70;71.30
78649;DHT22;67962;47.310;9.642;2023-03-12T10:04:23;7.80;71.90
78649;DHT22;67962;47.310;9.642;2023-03-12T10:09:53;8.00;71.20
78649;DHT22;67962;47.310;9.642;2023-03-12T10:12:29;8.00;71.60
78649;DHT22;67962;47.310;9.642;2023-03-12T10:15:23;8.10;71.30
78649;DHT22;67962;47.310;9.642;2023-03-12T10:21:06;8.20;71.60
78649;DHT22;67962;47.310;9.642;2023-03-12T10:23:55;8.30;71.30
78649;DHT22;67962;47.310;9.642;2023-03-12T10:26:28;8.40;71.20
78649;DHT22;67962;47.310;9.642;2023-03-12T10:29:01;8.50;70.50
78649;DHT22;67962;47.310;9.642;2023-03-12T10:32:03;8.50;70.80
78649;DHT22;67962;47.310;9.642;2023-03-12T10:34:36;8.60;70.90
78649;DHT22;67962;47.310;9.642;2023-03-12T10:37:13;8.70;70.60
78649;DHT22;67962;47.310;9.642;2023-03-12T10:39:40;8.70;70.60
78649;DHT22;67962;47.310;9.642;2023-03-12T10:42:23;8.70;70.20
78649;DHT22;67962;47.310;9.642;2023-03-12T10:44:53;8.70;70.40
78649;DHT22;67962;47.310;9.642;2023-03-12T10:47:36;8.70;70.60
78649;DHT22;67962;47.310;9.642;2023-03-12T10:52:42;8.70;71.10
78649;DHT22;67962;47.310;9.642;2023-03-12T10:57:46;8.80;71.50
78649;DHT22;67962;47.310;9.642;2023-03-12T11:00:18;8.90;71.50
78649;DHT22;67962;47.310;9.642;2023-03-12T11:02:46;8.80;71.50
78649;DHT22;67962;47.310;9.642;2023-03-12T11:05:23;8.90;71.50
78649;DHT22;67962;47.310;9.642;2023-03-12T11:07:50;8.90;71.10
78649;DHT22;67962;47.310;9.642;2023-03-12T11:10:20;9.00;70.90
78649;DHT22;67962;47.310;9.642;2023-03-12T11:13:39;9.10;71.20
78649;DHT22;67962;47.310;9.642;2023-03-12T11:15:41;9.10;72.00
78649;DHT22;67962;47.310;9.642;2023-03-12T11:23:33;9.00;72.40
78649;DHT22;67962;47.310;9.642;2023-03-12T11:26:02;9.10;72.40
78649;DHT22;67962;47.310;9.642;2023-03-12T11:28:39;9.10;72.70
78649;DHT22;67962;47.310;9.642;2023-03-12T11:31:12;9.10;72.50
78649;DHT22;67962;47.310;9.642;2023-03-12T11:33:40;9.00;72.30
78649;DHT22;67962;47.310;9.642;2023-03-12T11:50:12;9.10;73.00
78649;DHT22;67962;47.310;9.642;2023-03-12T11:58:24;9.30;72.90
78649;DHT22;67962;47.310;9.642;2023-03-12T12:04:17;9.30;73.00
78649;DHT22;67962;47.310;9.642;2023-03-12T12:06:39;9.30;73.10
78649;DHT22;67962;47.310;9.642;2023-03-12T12:13:07;9.40;73.30
78649;DHT22;67962;47.310;9.642;2023-03-12T12:15:37;9.40;73.00
78649;DHT22;67962;47.310;9.642;2023-03-12T12:18:13;9.40;72.50
78649;DHT22;67962;47.310;9.642;2023-03-12T12:21:05;9.40;72.70
78649;DHT22;67962;47.310;9.642;2023-03-12T12:24:04;9.50;72.70
78649;DHT22;67962;47.310;9.642;2023-03-12T12:31:57;9.60;72.30
78649;DHT22;67962;47.310;9.642;2023-03-12T12:37:15;9.60;72.20
78649;DHT22;67962;47.310;9.642;2023-03-12T12:40:38;9.60;71.90
78649;DHT22;67962;47.310;9.642;2023-03-12T12:42:57;9.60;71.80
78649;DHT22;67962;47.310;9.642;2023-03-12T12:45:27;9.60;72.00
78649;DHT22;67962;47.310;9.642;2023-03-12T12:48:05;9.50;72.20
78649;DHT22;67962;47.310;9.642;2023-03-12T12:50:36;9.50;72.30
78649;DHT22;67962;47.310;9.642;2023-03-12T12:53:24;9.60;72.20
78649;DHT22;67962;47.310;9.642;2023-03-12T13:01:14;9.70;71.70
78649;DHT22;67962;47.310;9.642;2023-03-12T13:03:42;9.80;72.50
78649;DHT22;67962;47.310;9.642;2023-03-12T13:06:09;9.70;73.20
78649;DHT22;67962;47.310;9.642;2023-03-12T13:14:22;9.90;73.60
78649;DHT22;67962;47.310;9.642;2023-03-12T13:16:40;9.80;73.80
78649;DHT22;67962;47.310;9.642;2023-03-12T13:19:20;9.80;74.80
78649;DHT22;67962;47.310;9.642;2023-03-12T13:24:22;10.00;73.60
78649;DHT22;67962;47.310;9.642;2023-03-12T13:31:58;10.20;73.80
78649;DHT22;67962;47.310;9.642;2023-03-12T13:34:44;10.20;73.70
78649;DHT22;67962;47.310;9.642;2023-03-12T13:37:28;10.40;73.20
78649;DHT22;67962;47.310;9.642;2023-03-12T13:39:58;10.50;72.60
78649;DHT22;67962;47.310;9.642;2023-03-12T13:42:35;10.60;72.10
78649;DHT22;67962;47.310;9.642;2023-03-12T13:45:22;10.70;72.00
78649;DHT22;67962;47.310;9.642;2023-03-12T13:47:49;10.60;72.70
78649;DHT22;67962;47.310;9.642;2023-03-12T13:50:18;10.50;72.40
78649;DHT22;67962;47.310;9.642;2023-03-12T13:53:03;10.50;72.70
78649;DHT22;67962;47.310;9.642;2023-03-12T13:55:32;10.50;72.90
78649;DHT22;67962;47.310;9.642;2023-03-12T13:58:08;10.50;73.00
78649;DHT22;67962;47.310;9.642;2023-03-12T14:06:05;10.60;72.70
78649;DHT22;67962;47.310;9.642;2023-03-12T14:16:57;10.80;73.50
78649;DHT22;67962;47.310;9.642;2023-03-12T14:19:26;10.80;73.60
78649;DHT22;67962;47.310;9.642;2023-03-12T14:21:55;10.90;73.10
78649;DHT22;67962;47.310;9.642;2023-03-12T14:24:33;11.00;73.10
78649;DHT22;67962;47.310;9.642;2023-03-12T14:27:01;11.10;73.30
78649;DHT22;67962;47.310;9.642;2023-03-12T14:29:30;11.10;72.90
78649;DHT22;67962;47.310;9.642;2023-03-12T14:32:02;11.20;72.20
78649;DHT22;67962;47.310;9.642;2023-03-12T14:34:44;11.20;71.90
78649;DHT22;67962;47.310;9.642;2023-03-12T14:39:49;11.30;72.60
78649;DHT22;67962;47.310;9.642;2023-03-12T14:42:33;11.20;72.80
78649;DHT22;67962;47.310;9.642;2023-03-12T14:45:02;11.20;73.10
78649;DHT22;67962;47.310;9.642;2023-03-12T14:47:28;11.20;73.10
78649;DHT22;67962;47.310;9.642;2023-03-12T14:49:56;11.10;73.50
78649;DHT22;67962;47.310;9.642;2023-03-12T14:52:25;11.20;73.70
78649;DHT22;67962;47.310;9.642;2023-03-12T14:55:12;11.20;73.80
78649;DHT22;67962;47.310;9.642;2023-03-12T14:57:39;11.30;73.10
78649;DHT22;67962;47.310;9.642;2023-03-12T15:00:06;11.30;73.00
78649;DHT22;67962;47.310;9.642;2023-03-12T15:02:41;11.40;73.00
78649;DHT22;67962;47.310;9.642;2023-03-12T15:05:16;11.30;73.10
78649;DHT22;67962;47.310;9.642;2023-03-12T15:07:43;11.40;73.20
78649;DHT22;67962;47.310;9.642;2023-03-12T15:10:24;11.60;72.60
78649;DHT22;67962;47.310;9.642;2023-03-12T15:12:53;11.60;72.70
78649;DHT22;67962;47.310;9.642;2023-03-12T15:17:53;11.60;73.00
78649;DHT22;67962;47.310;9.642;2023-03-12T15:20:20;11.70;73.40
78649;DHT22;67962;47.310;9.642;2023-03-12T15:22:47;11.70;72.90
78649;DHT22;67962;47.310;9.642;2023-03-12T15:25:30;11.80;72.20
78649;DHT22;67962;47.310;9.642;2023-03-12T15:28:07;11.90;72.00
78649;DHT22;67962;47.310;9.642;2023-03-12T15:33:37;12.20;71.40
78649;DHT22;67962;47.310;9.642;2023-03-12T15:41:51;12.50;72.50
78649;DHT22;67962;47.310;9.642;2023-03-12T15:44:23;12.50;70.90
78649;DHT22;67962;47.310;9.642;2023-03-12T15:46:52;12.60;70.80
78649;DHT22;67962;47.310;9.642;2023-03-12T15:49:25;12.60;71.10
78649;DHT22;67962;47.310;9.642;2023-03-12T15:54:29;12.70;69.60
78649;DHT22;67962;47.310;9.642;2023-03-12T15:57:20;12.60;68.50
78649;DHT22;67962;47.310;9.642;2023-03-12T16:02:48;12.50;68.90
78649;DHT22;67962;47.310;9.642;2023-03-12T16:05:15;12.50;68.80
78649;DHT22;67962;47.310;9.642;2023-03-12T16:07:42;12.50;68.60
78649;DHT22;67962;47.310;9.642;2023-03-12T16:10:17;12.40;68.70
78649;DHT22;67962;47.310;9.642;2023-03-12T16:12:44;12.40;68.70
78649;DHT22;67962;47.310;9.642;2023-03-12T16:15:20;12.40;68.30
78649;DHT22;67962;47.310;9.642;2023-03-12T16:17:47;12.40;68.60
78649;DHT22;67962;47.310;9.642;2023-03-12T16:20:14;12.40;68.70
78649;DHT22;67962;47.310;9.642;2023-03-12T16:22:42;12.40;67.40
78649;DHT22;67962;47.310;9.642;2023-03-12T16:25:10;12.30;68.00
78649;DHT22;67962;47.310;9.642;2023-03-12T16:27:43;12.20;67.70
78649;DHT22;67962;47.310;9.642;2023-03-12T16:30:25;12.10;67.50
78649;DHT22;67962;47.310;9.642;2023-03-12T16:32:53;12.00;67.50
78649;DHT22;67962;47.310;9.642;2023-03-12T16:35:19;12.00;67.60
78649;DHT22;67962;47.310;9.642;2023-03-12T16:37:45;11.80;67.90
78649;DHT22;67962;47.310;9.642;2023-03-12T16:40:13;11.80;68.40
78649;DHT22;67962;47.310;9.642;2023-03-12T16:42:43;11.80;68.00
78649;DHT22;67962;47.310;9.642;2023-03-12T16:45:12;11.80;67.90
78649;DHT22;67962;47.310;9.642;2023-03-12T16:47:40;11.80;68.00
78649;DHT22;67962;47.310;9.642;2023-03-12T16:50:24;11.80;67.80
78649;DHT22;67962;47.310;9.642;2023-03-12T16:52:51;11.80;67.50
78649;DHT22;67962;47.310;9.642;2023-03-12T16:55:18;11.70;67.50
78649;DHT22;67962;47.310;9.642;2023-03-12T16:57:54;11.70;67.60
78649;DHT22;67962;47.310;9.642;2023-03-12T17:00:24;11.60;68.00
78649;DHT22;67962;47.310;9.642;2023-03-12T17:02:52;11.50;68.70
78649;DHT22;67962;47.310;9.642;2023-03-12T17:05:23;11.30;68.60
78649;DHT22;67962;47.310;9.642;2023-03-12T17:07:49;11.30;68.80
78649;DHT22;67962;47.310;9.642;2023-03-12T17:10:16;11.40;68.90
78649;DHT22;67962;47.310;9.642;2023-03-12T17:12:42;11.40;68.70
78649;DHT22;67962;47.310;9.642;2023-03-12T17:15:27;11.40;68.60
78649;DHT22;67962;47.310;9.642;2023-03-12T17:17:58;11.40;68.60
78649;DHT22;67962;47.310;9.642;2023-03-12T17:20:28;11.40;68.60
78649;DHT22;67962;47.310;9.642;2023-03-12T17:23:03;11.40;68.70
78649;DHT22;67962;47.310;9.642;2023-03-12T17:25:32;11.30;69.10
78649;DHT22;67962;47.310;9.642;2023-03-12T17:27:59;11.20;69.70
78649;DHT22;67962;47.310;9.642;2023-03-12T17:30:29;11.00;70.30
78649;DHT22;67962;47.310;9.642;2023-03-12T17:33:07;10.90;70.40
78649;DHT22;67962;47.310;9.642;2023-03-12T17:35:34;11.00;70.50
78649;DHT22;67962;47.310;9.642;2023-03-12T17:38:00;11.00;70.50
78649;DHT22;67962;47.310;9.642;2023-03-12T17:40:27;11.00;70.40
78649;DHT22;67962;47.310;9.642;2023-03-12T17:42:55;11.00;70.40
78649;DHT22;67962;47.310;9.642;2023-03-12T17:45:21;10.90;70.50
78649;DHT22;67962;47.310;9.642;2023-03-12T17:47:48;10.90;70.60
78649;DHT22;67962;47.310;9.642;2023-03-12T17:50:14;10.90;70.60
78649;DHT22;67962;47.310;9.642;2023-03-12T17:52:40;10.90;70.80
78649;DHT22;67962;47.310;9.642;2023-03-12T17:55:07;10.80;70.80
78649;DHT22;67962;47.310;9.642;2023-03-12T17:57:33;10.80;70.70
78649;DHT22;67962;47.310;9.642;2023-03-12T17:59:59;10.80;70.70
78649;DHT22;67962;47.310;9.642;2023-03-12T18:02:25;10.80;71.10